createdAt,value
2022-11-03T00:01:50.874Z,6.63
2022-11-03T00:04:21.961Z,5.93
2022-11-03T00:06:53.295Z,5.67
2022-11-03T00:09:23.657Z,5.60
2022-11-03T00:11:53.376Z,5.73
2022-11-03T00:14:21.734Z,5.67
2022-11-03T00:16:50.590Z,4.73
2022-11-03T00:19:18.731Z,5.63
2022-11-03T00:21:47.857Z,5.30
2022-11-03T00:24:16.003Z,6.73
2022-11-03T00:26:44.152Z,9.33
2022-11-03T00:29:15.364Z,9.47
2022-11-03T00:31:45.576Z,8.27
2022-11-03T00:34:13.834Z,8.30
2022-11-03T00:36:43.855Z,8.13
2022-11-03T00:39:13.586Z,9.13
2022-11-03T00:41:42.151Z,9.73
2022-11-03T00:44:11.066Z,8.10
2022-11-03T00:46:40.585Z,8.40
2022-11-03T00:49:08.818Z,6.43
2022-11-03T00:51:37.259Z,6.43
2022-11-03T00:54:07.250Z,5.63
2022-11-03T00:56:38.825Z,6.93
2022-11-03T00:59:09.318Z,6.37
2022-11-03T01:01:45.785Z,7.23
2022-11-03T01:04:33.121Z,6.83
2022-11-03T01:07:02.183Z,5.60
2022-11-03T01:09:32.624Z,5.00
2022-11-03T01:12:04.581Z,5.13
2022-11-03T01:14:36.162Z,4.80
2022-11-03T01:17:06.621Z,4.97
2022-11-03T01:19:34.803Z,4.67
2022-11-03T01:22:06.449Z,4.80
2022-11-03T01:24:38.277Z,4.87
2022-11-03T01:27:06.389Z,4.73
2022-11-03T01:29:34.615Z,4.90
2022-11-03T01:32:02.795Z,4.90
2022-11-03T01:34:32.789Z,5.13
2022-11-03T01:37:00.965Z,5.20
2022-11-03T01:39:29.173Z,5.17
2022-11-03T01:41:57.468Z,4.50
2022-11-03T01:44:37.626Z,5.20
2022-11-03T01:47:20.476Z,4.50
2022-11-03T01:49:55.816Z,4.13
2022-11-03T01:52:31.613Z,4.83
2022-11-03T01:55:09.923Z,4.10
2022-11-03T01:57:44.657Z,5.03
2022-11-03T02:00:14.523Z,5.17
2022-11-03T02:02:45.047Z,4.37
2022-11-03T02:05:17.536Z,4.33
2022-11-03T02:07:53.459Z,4.50
2022-11-03T02:10:22.063Z,4.43
2022-11-03T02:12:50.569Z,4.30
2022-11-03T02:15:22.519Z,4.03
2022-11-03T02:17:54.895Z,4.57
2022-11-03T02:20:29.123Z,4.70
2022-11-03T02:23:25.598Z,3.93
2022-11-03T02:25:58.342Z,4.53
2022-11-03T02:28:30.489Z,4.43
2022-11-03T02:31:11.147Z,5.97
2022-11-03T02:33:50.944Z,4.43
2022-11-03T02:36:25.984Z,4.97
2022-11-03T02:39:01.125Z,4.47
2022-11-03T02:41:35.399Z,6.10
2022-11-03T02:44:06.316Z,4.03
2022-11-03T02:46:37.086Z,4.77
2022-11-03T02:49:05.218Z,4.07
2022-11-03T02:51:34.769Z,3.93
2022-11-03T02:54:10.112Z,4.57
2022-11-03T02:56:49.406Z,3.73
2022-11-03T02:59:23.744Z,5.00
2022-11-03T03:02:00.563Z,4.87
2022-11-03T03:04:35.623Z,3.80
2022-11-03T03:07:10.888Z,4.53
2022-11-03T03:09:45.262Z,3.90
2022-11-03T03:12:20.629Z,3.73
2022-11-03T03:14:51.877Z,4.27
2022-11-03T03:17:31.921Z,4.40
2022-11-03T03:20:06.349Z,4.40
2022-11-03T03:22:44.065Z,4.77
2022-11-03T03:25:18.383Z,4.13
2022-11-03T03:27:53.710Z,3.43
2022-11-03T03:30:22.004Z,3.83
2022-11-03T03:32:53.236Z,2.90
2022-11-03T03:35:27.733Z,3.53
2022-11-03T03:38:04.458Z,3.57
2022-11-03T03:40:38.796Z,3.60
2022-11-03T03:43:12.653Z,4.07
2022-11-03T03:45:43.925Z,4.87
2022-11-03T03:48:13.932Z,4.17
2022-11-03T03:50:45.791Z,4.40
2022-11-03T03:53:14.301Z,4.40
2022-11-03T03:55:46.689Z,3.93
2022-11-03T03:58:17.472Z,3.60
2022-11-03T04:00:45.963Z,3.53
2022-11-03T04:03:19.236Z,4.03
2022-11-03T04:05:47.940Z,4.90
2022-11-03T04:08:17.938Z,5.00
2022-11-03T04:11:07.434Z,5.43
2022-11-03T04:13:54.384Z,5.37
2022-11-03T04:16:39.873Z,4.73
2022-11-03T04:19:27.890Z,5.87
2022-11-03T04:22:13.810Z,5.50
2022-11-03T04:24:42.027Z,5.07
2022-11-03T04:27:28.520Z,4.40
2022-11-03T04:30:04.210Z,3.90
2022-11-03T04:32:32.552Z,3.70
2022-11-03T04:35:01.204Z,3.50
2022-11-03T04:37:30.197Z,3.73
2022-11-03T04:40:01.502Z,4.00
2022-11-03T04:42:34.426Z,3.37
2022-11-03T04:45:15.452Z,3.93
2022-11-03T04:47:43.610Z,4.33
2022-11-03T04:50:19.722Z,4.77
2022-11-03T04:52:49.038Z,5.77
2022-11-03T04:55:19.699Z,6.10
2022-11-03T04:57:49.296Z,5.40
2022-11-03T05:00:21.278Z,5.20
2022-11-03T05:02:55.858Z,4.53
2022-11-03T05:05:27.142Z,4.77
2022-11-03T05:07:58.016Z,5.23
2022-11-03T05:10:30.212Z,4.23
2022-11-03T05:13:01.561Z,4.70
2022-11-03T05:15:36.584Z,4.00
2022-11-03T05:18:17.142Z,4.33
2022-11-03T05:20:52.225Z,5.57
2022-11-03T05:23:23.668Z,4.97
2022-11-03T05:25:54.895Z,4.80
2022-11-03T05:28:27.174Z,4.73
2022-11-03T05:30:57.426Z,4.67
2022-11-03T05:33:31.874Z,5.80
2022-11-03T05:36:15.163Z,4.63
2022-11-03T05:38:43.901Z,4.30
2022-11-03T05:41:21.956Z,4.23
2022-11-03T05:43:58.381Z,4.83
2022-11-03T05:46:34.490Z,6.17
2022-11-03T05:49:03.824Z,5.73
2022-11-03T05:51:37.629Z,9.37
2022-11-03T05:54:21.390Z,9.27
2022-11-03T06:01:27.380Z,7.97
2022-11-03T06:03:57.520Z,8.00
2022-11-03T06:06:32.467Z,7.83
2022-11-03T06:09:04.236Z,8.63
2022-11-03T06:11:37.176Z,6.87
2022-11-03T06:14:22.848Z,7.37
2022-11-03T06:16:57.209Z,6.80
2022-11-03T06:19:32.340Z,9.40
2022-11-03T06:22:09.275Z,9.17
2022-11-03T06:24:37.560Z,12.07
2022-11-03T06:27:05.759Z,12.63
2022-11-03T06:29:35.263Z,11.63
2022-11-03T06:32:03.498Z,11.47
2022-11-03T06:34:42.483Z,11.13
2022-11-03T06:37:33.576Z,10.90
2022-11-03T06:40:31.316Z,10.33
2022-11-03T06:43:00.092Z,9.77
2022-11-03T06:45:29.460Z,11.03
2022-11-03T06:47:57.592Z,11.23
2022-11-03T06:50:30.868Z,11.80
2022-11-03T06:53:02.702Z,12.07
2022-11-03T06:55:34.156Z,10.73
2022-11-03T06:58:13.185Z,10.67
2022-11-03T07:00:48.871Z,10.07
2022-11-03T07:03:25.217Z,9.13
2022-11-03T07:06:03.411Z,9.00
2022-11-03T07:08:38.346Z,8.80
2022-11-03T07:11:16.313Z,7.97
2022-11-03T07:13:44.909Z,9.20
2022-11-03T07:16:22.868Z,8.37
2022-11-03T07:18:51.031Z,8.67
2022-11-03T07:21:39.218Z,8.37
2022-11-03T07:24:20.593Z,7.77
2022-11-03T07:26:50.259Z,8.23
2022-11-03T07:29:22.814Z,7.97
2022-11-03T07:31:55.236Z,7.90
2022-11-03T07:34:27.731Z,7.80
2022-11-03T07:36:59.359Z,7.63
2022-11-03T07:39:35.222Z,8.23
2022-11-03T07:42:10.712Z,7.67
2022-11-03T07:44:41.759Z,7.67
2022-11-03T07:47:15.250Z,9.77
2022-11-03T07:49:44.131Z,12.50
2022-11-03T07:52:17.625Z,11.13
2022-11-03T07:54:45.755Z,10.77
2022-11-03T07:57:23.018Z,8.67
2022-11-03T07:59:54.894Z,9.47
2022-11-03T08:02:32.691Z,10.90
2022-11-03T08:05:01.404Z,12.17
2022-11-03T08:07:32.633Z,11.50
2022-11-03T08:10:00.845Z,13.73
2022-11-03T08:12:29.066Z,11.97
2022-11-03T08:14:57.219Z,11.10
2022-11-03T08:17:25.422Z,11.47
2022-11-03T08:19:53.764Z,13.17
2022-11-03T08:22:23.153Z,13.97
2022-11-03T08:24:52.784Z,12.83
2022-11-03T08:27:20.992Z,11.37
2022-11-03T08:29:49.369Z,9.90
2022-11-03T08:32:17.638Z,10.40
2022-11-03T08:34:45.754Z,9.57
2022-11-03T08:37:13.850Z,9.07
2022-11-03T08:39:41.963Z,9.07
2022-11-03T08:42:11.396Z,9.93
2022-11-03T08:44:41.246Z,9.47
2022-11-03T08:47:09.324Z,7.70
2022-11-03T08:49:37.461Z,7.37
2022-11-03T08:52:05.997Z,7.10
2022-11-03T08:54:34.121Z,6.63
2022-11-03T08:57:02.298Z,5.43
2022-11-03T08:59:31.778Z,5.47
2022-11-03T09:01:59.964Z,5.27
2022-11-03T09:04:28.124Z,4.93
2022-11-03T09:06:56.287Z,4.27
2022-11-03T09:12:12.779Z,3.70
2022-11-03T09:14:42.327Z,3.47
2022-11-03T09:17:10.461Z,4.68
2022-11-03T09:19:38.895Z,3.72
2022-11-03T09:22:07.115Z,3.92
2022-11-03T09:24:35.273Z,3.90
2022-11-03T09:27:04.772Z,3.83
2022-11-03T09:29:58.481Z,3.53
2022-11-03T09:32:23.658Z,4.03
2022-11-03T09:34:51.966Z,3.60
2022-11-03T09:37:20.345Z,3.65
2022-11-03T09:39:48.452Z,3.47
2022-11-03T09:42:18.550Z,3.40
2022-11-03T09:44:48.999Z,4.32
2022-11-03T09:47:25.497Z,3.75
2022-11-03T09:49:53.933Z,4.30
2022-11-03T09:52:24.954Z,4.57
2022-11-03T09:54:56.261Z,5.00
2022-11-03T09:57:28.580Z,3.38
2022-11-03T09:59:57.155Z,4.55
2022-11-03T10:02:30.683Z,4.90
2022-11-03T10:05:06.808Z,5.10
2022-11-03T10:07:38.042Z,4.97
2022-11-03T10:10:07.575Z,4.78
2022-11-03T10:12:38.794Z,4.57
2022-11-03T10:15:15.343Z,5.25
2022-11-03T10:17:46.023Z,4.22
2022-11-03T10:20:17.355Z,3.88
2022-11-03T10:22:47.629Z,4.70
2022-11-03T10:25:37.717Z,4.88
2022-11-03T10:28:22.097Z,4.68
2022-11-03T10:31:13.219Z,4.47
2022-11-03T10:33:53.653Z,4.53
2022-11-03T10:36:26.597Z,4.35
2022-11-03T10:38:55.616Z,4.15
2022-11-03T10:41:26.852Z,4.30
2022-11-03T10:44:05.980Z,3.50
2022-11-03T10:46:51.606Z,4.05
2022-11-03T10:49:21.931Z,4.07
2022-11-03T10:51:53.239Z,3.53
2022-11-03T10:54:24.826Z,3.92
2022-11-03T10:56:53.828Z,3.92
2022-11-03T10:59:31.316Z,4.15
2022-11-03T11:02:00.007Z,4.45
2022-11-03T11:04:29.764Z,3.65
2022-11-03T11:06:57.963Z,4.38
2022-11-03T11:09:29.205Z,4.55
2022-11-03T11:12:03.141Z,3.63
2022-11-03T11:14:55.298Z,3.85
2022-11-03T11:17:49.355Z,4.20
2022-11-03T11:20:46.042Z,3.45
2022-11-03T11:23:52.673Z,3.97
2022-11-03T11:26:42.438Z,3.65
2022-11-03T11:29:46.126Z,4.25
2022-11-03T11:32:57.366Z,3.22
2022-11-03T11:36:28.653Z,3.80
2022-11-03T11:39:03.483Z,4.38
2022-11-03T11:42:07.735Z,3.63
2022-11-03T11:44:59.364Z,4.15
2022-11-03T11:47:50.387Z,3.67
2022-11-03T11:50:33.008Z,4.47
2022-11-03T11:53:19.494Z,3.47
2022-11-03T11:55:55.985Z,3.88
2022-11-03T11:58:35.444Z,3.20
2022-11-03T12:01:06.855Z,4.10
2022-11-03T12:03:45.258Z,3.50
2022-11-03T12:06:14.791Z,4.22
2022-11-03T12:08:44.232Z,4.32
2022-11-03T12:11:14.650Z,3.92
2022-11-03T12:13:51.122Z,5.10
2022-11-03T12:16:30.938Z,4.60
2022-11-03T12:19:39.473Z,4.78
2022-11-03T12:22:10.937Z,4.65
2022-11-03T12:24:52.063Z,5.07
2022-11-03T12:27:43.195Z,4.95
2022-11-03T12:30:20.397Z,5.07
2022-11-03T12:32:49.298Z,5.93
2022-11-03T12:35:17.902Z,6.88
2022-11-03T12:37:46.171Z,5.80
2022-11-03T12:40:15.214Z,6.47
2022-11-03T12:42:44.809Z,7.00
2022-11-03T12:45:14.263Z,5.25
2022-11-03T12:47:42.526Z,5.82
2022-11-03T12:50:11.269Z,6.00
2022-11-03T12:52:39.452Z,5.30
2022-11-03T12:55:08.335Z,4.60
2022-11-03T12:57:36.417Z,5.13
2022-11-03T13:00:07.846Z,4.72
2022-11-03T13:02:36.069Z,4.85
2022-11-03T13:05:04.718Z,4.72
2022-11-03T13:07:35.068Z,6.05
2022-11-03T13:10:04.751Z,5.60
2022-11-03T13:12:32.989Z,6.10
2022-11-03T13:15:02.981Z,5.85
2022-11-03T13:17:52.103Z,6.53
2022-11-03T13:20:20.567Z,6.20
2022-11-03T13:22:48.763Z,6.43
2022-11-03T13:25:17.719Z,6.18
2022-11-03T13:27:45.889Z,6.45
2022-11-03T13:30:14.601Z,7.22
2022-11-03T13:32:44.020Z,6.35
2022-11-03T13:35:14.097Z,6.30
2022-11-03T13:37:42.696Z,7.15
2022-11-03T13:40:35.546Z,8.73
2022-11-03T13:43:01.740Z,6.45
2022-11-03T13:45:29.925Z,6.85
2022-11-03T13:50:50.720Z,5.70
2022-11-03T13:56:12.841Z,6.95
2022-11-03T14:01:33.958Z,7.07
2022-11-03T14:06:51.759Z,7.35
2022-11-03T14:09:19.990Z,7.75
2022-11-03T14:12:05.955Z,10.45
2022-11-03T14:14:34.170Z,11.10
2022-11-03T14:17:02.352Z,11.52
2022-11-03T14:19:39.628Z,11.60
2022-11-03T14:22:11.171Z,11.70
2022-11-03T14:24:39.333Z,11.18
2022-11-03T14:27:07.533Z,11.27
2022-11-03T14:29:35.856Z,11.73
2022-11-03T14:32:04.063Z,10.50
2022-11-03T14:34:33.976Z,11.32
2022-11-03T14:37:02.326Z,10.45
2022-11-03T14:39:30.445Z,10.52
2022-11-03T14:42:03.497Z,10.30
2022-11-03T14:44:32.742Z,10.27
2022-11-03T14:47:02.350Z,10.82
2022-11-03T14:49:33.509Z,10.20
2022-11-03T14:52:03.483Z,10.20
2022-11-03T14:54:32.583Z,10.82
2022-11-03T14:57:01.035Z,11.90
2022-11-03T14:59:29.536Z,12.27
2022-11-03T15:01:59.064Z,10.85
2022-11-03T15:04:27.890Z,11.30
2022-11-03T15:06:57.339Z,10.80
2022-11-03T15:09:25.461Z,11.02
2022-11-03T15:11:53.651Z,10.77
2022-11-03T15:14:21.809Z,22.95
2022-11-03T15:16:49.969Z,13.93
2022-11-03T15:19:18.198Z,14.95
2022-11-03T15:21:46.499Z,11.27
2022-11-03T15:27:05.615Z,10.80
2022-11-03T15:29:33.776Z,12.70
2022-11-03T15:32:01.933Z,11.82
2022-11-03T15:34:30.236Z,11.32
2022-11-03T15:36:58.410Z,11.63
2022-11-03T15:39:29.660Z,11.38
2022-11-03T15:41:59.921Z,10.55
2022-11-03T15:44:28.107Z,9.77
2022-11-03T15:46:56.214Z,9.23
2022-11-03T15:49:24.504Z,9.65
2022-11-03T15:51:52.616Z,9.00
2022-11-03T15:54:20.732Z,9.00
2022-11-03T15:56:50.228Z,10.27
2022-11-03T15:59:19.026Z,11.27
2022-11-03T16:01:47.480Z,10.88
2022-11-03T16:04:16.629Z,9.95
2022-11-03T16:09:33.356Z,10.15
2022-11-03T16:12:03.389Z,10.82
2022-11-03T16:14:31.589Z,13.77
2022-11-03T16:16:59.889Z,12.43
2022-11-03T16:19:28.078Z,15.02
2022-11-03T16:21:56.240Z,14.30
2022-11-03T16:24:29.663Z,14.43
2022-11-03T16:27:05.006Z,28.00
2022-11-03T16:29:33.195Z,44.38
2022-11-03T16:32:01.659Z,23.52
2022-11-03T16:34:29.837Z,16.40
2022-11-03T16:36:58.280Z,16.92
2022-11-03T16:39:26.537Z,20.27
2022-11-03T16:41:55.002Z,15.05
2022-11-03T16:44:24.684Z,16.50
2022-11-03T16:46:53.103Z,19.63
2022-11-03T16:49:21.789Z,16.00
2022-11-03T16:51:50.053Z,15.68
2022-11-03T16:54:18.265Z,14.88
2022-11-03T16:56:50.571Z,14.50
2022-11-03T16:59:24.260Z,30.55
2022-11-03T17:01:54.272Z,18.25
2022-11-03T17:04:23.384Z,15.35
2022-11-03T17:06:51.601Z,12.25
2022-11-03T17:09:20.845Z,11.50
2022-11-03T17:11:49.019Z,11.75
2022-11-03T17:14:17.166Z,12.63
2022-11-03T17:16:47.071Z,12.23
2022-11-03T17:19:17.103Z,13.70
2022-11-03T17:21:45.313Z,14.13
2022-11-03T17:24:13.584Z,13.80
2022-11-03T17:26:55.682Z,12.63
2022-11-03T17:29:31.429Z,12.90
2022-11-03T17:31:59.962Z,14.27
2022-11-03T17:34:29.719Z,12.88
2022-11-03T17:36:59.049Z,12.82
2022-11-03T17:39:33.567Z,11.90
2022-11-03T17:42:19.718Z,12.10
2022-11-03T17:44:50.812Z,14.52
2022-11-03T17:47:21.002Z,19.25
2022-11-03T17:49:51.796Z,14.18
2022-11-03T17:52:26.868Z,14.88
2022-11-03T17:54:58.922Z,13.75
2022-11-03T17:57:28.637Z,14.02
2022-11-03T18:00:01.251Z,13.95
2022-11-03T18:02:33.339Z,12.45
2022-11-03T18:05:21.943Z,13.00
2022-11-03T18:07:50.889Z,14.15
2022-11-03T18:10:19.116Z,23.58
2022-11-03T18:13:08.872Z,31.65
2022-11-03T18:15:39.117Z,34.53
2022-11-03T18:18:16.255Z,29.70
2022-11-03T18:20:53.918Z,25.38
2022-11-03T18:23:25.391Z,24.77
2022-11-03T18:25:55.408Z,21.90
2022-11-03T18:28:23.695Z,19.88
2022-11-03T18:30:55.038Z,21.23
2022-11-03T18:33:27.020Z,20.90
2022-11-03T18:35:58.089Z,19.83
2022-11-03T18:38:27.216Z,15.95
2022-11-03T18:40:56.031Z,19.17
2022-11-03T18:43:27.095Z,17.75
2022-11-03T18:45:55.534Z,14.20
2022-11-03T18:48:23.988Z,12.93
2022-11-03T18:50:55.323Z,13.23
2022-11-03T18:53:27.494Z,12.93
2022-11-03T18:56:00.926Z,14.73
2022-11-03T18:58:29.228Z,14.80
2022-11-03T19:00:57.519Z,13.90
2022-11-03T19:03:25.758Z,24.77
2022-11-03T19:05:54.547Z,33.05
2022-11-03T19:08:29.864Z,27.40
2022-11-03T19:11:03.611Z,22.67
2022-11-03T19:13:37.533Z,25.67
2022-11-03T19:16:16.479Z,22.05
2022-11-03T19:18:46.477Z,100.68
2022-11-03T19:21:18.116Z,40.15
2022-11-03T19:23:49.102Z,18.17
2022-11-03T19:26:23.409Z,15.75
2022-11-03T19:28:56.753Z,27.42
2022-11-03T19:31:32.315Z,20.20
2022-11-03T19:34:01.384Z,25.35
2022-11-03T19:36:31.286Z,18.75
2022-11-03T19:39:01.665Z,17.98
2022-11-03T19:41:47.589Z,15.30
2022-11-03T19:44:16.004Z,14.15
2022-11-03T19:46:44.359Z,17.55
2022-11-03T19:49:15.365Z,15.40
2022-11-03T19:51:43.731Z,15.50
2022-11-03T19:54:18.604Z,15.60
2022-11-03T19:56:47.428Z,15.68
2022-11-03T19:59:18.021Z,14.40
2022-11-03T20:01:46.415Z,14.48
2022-11-03T20:04:14.708Z,22.35
2022-11-03T20:06:42.996Z,15.88
2022-11-03T20:09:18.906Z,13.82
2022-11-03T20:11:47.538Z,13.23
2022-11-03T20:14:20.236Z,12.45
2022-11-03T20:16:48.546Z,12.80
2022-11-03T20:19:16.784Z,12.80
2022-11-03T20:21:48.658Z,12.45
2022-11-03T20:24:19.871Z,12.48
2022-11-03T20:26:48.199Z,10.85
2022-11-03T20:29:17.084Z,10.90
2022-11-03T20:31:46.044Z,11.70
2022-11-03T20:34:15.677Z,12.00
2022-11-03T20:36:44.862Z,11.18
2022-11-03T20:39:18.493Z,11.65
2022-11-03T20:41:52.199Z,11.45
2022-11-03T20:44:20.541Z,11.90
2022-11-03T20:46:48.776Z,11.80
2022-11-03T20:49:17.067Z,10.98
2022-11-03T20:51:47.843Z,11.90
2022-11-03T20:54:20.076Z,11.60
2022-11-03T20:56:49.698Z,11.40
2022-11-03T20:59:21.325Z,12.18
2022-11-03T21:01:50.121Z,11.93
2022-11-03T21:04:21.495Z,12.88
2022-11-03T21:06:50.219Z,12.20
2022-11-03T21:09:20.349Z,11.95
2022-11-03T21:11:53.040Z,18.45
2022-11-03T21:14:26.274Z,16.30
2022-11-03T21:17:12.034Z,14.25
2022-11-03T21:19:57.691Z,12.23
2022-11-03T21:25:24.051Z,14.30
2022-11-03T21:27:54.693Z,15.05
2022-11-03T21:30:23.582Z,14.23
2022-11-03T21:32:52.541Z,12.68
2022-11-03T21:35:23.076Z,11.32
2022-11-03T21:37:51.478Z,11.95
2022-11-03T21:40:19.813Z,11.93
2022-11-03T21:43:05.756Z,12.15
2022-11-03T21:45:35.935Z,12.60
2022-11-03T21:48:22.560Z,12.73
2022-11-03T21:50:50.941Z,13.10
2022-11-03T21:53:19.119Z,13.10
2022-11-03T21:55:49.423Z,12.52
2022-11-03T21:58:17.716Z,14.15
2022-11-03T22:00:47.603Z,12.52
2022-11-03T22:03:15.954Z,13.13
2022-11-03T22:05:44.171Z,12.55
2022-11-03T22:08:12.397Z,11.90
2022-11-03T22:10:41.108Z,13.50
2022-11-03T22:13:09.727Z,11.80
2022-11-03T22:15:55.981Z,12.50
2022-11-03T22:18:25.573Z,13.80
2022-11-03T22:21:11.341Z,12.65
2022-11-03T22:23:56.924Z,13.70
2022-11-03T22:26:41.943Z,13.50
2022-11-03T22:29:42.090Z,11.90
2022-11-03T22:32:15.708Z,12.50
2022-11-03T22:35:02.729Z,12.20
2022-11-03T22:40:16.200Z,13.95
2022-11-03T22:43:02.701Z,14.02
2022-11-03T22:45:44.938Z,12.95
2022-11-03T22:48:13.632Z,13.93
2022-11-03T22:50:43.279Z,13.10
2022-11-03T22:53:28.987Z,13.02
2022-11-03T22:55:57.141Z,14.20
2022-11-03T22:58:29.394Z,13.75
2022-11-03T23:00:58.727Z,13.30
2022-11-03T23:03:27.024Z,14.15
2022-11-03T23:06:02.094Z,13.50
2022-11-03T23:08:32.796Z,13.13
2022-11-03T23:11:15.873Z,13.65
2022-11-03T23:13:45.635Z,13.98
2022-11-03T23:16:17.807Z,12.70
2022-11-03T23:19:05.455Z,13.85
2022-11-03T23:21:36.690Z,12.98
2022-11-03T23:24:23.585Z,12.55
2022-11-03T23:26:52.267Z,12.68
2022-11-03T23:29:20.454Z,12.75
2022-11-03T23:31:48.969Z,13.73
2022-11-03T23:34:17.308Z,13.82
2022-11-03T23:36:46.867Z,13.82
2022-11-03T23:39:17.225Z,13.07
2022-11-03T23:41:46.267Z,13.35
2022-11-03T23:44:16.408Z,13.13
2022-11-03T23:47:03.098Z,12.90
2022-11-03T23:49:31.517Z,12.77
2022-11-03T23:52:01.037Z,11.95
2022-11-03T23:54:29.363Z,12.52
2022-11-03T23:57:15.353Z,13.23
